createdAt,value
2023-06-25T00:00:20.116Z,100220.91
2023-06-25T00:02:21.836Z,100212.06
2023-06-25T00:04:23.473Z,100216.06
2023-06-25T00:06:25.071Z,100211.53
2023-06-25T00:08:26.641Z,100208.81
2023-06-25T00:10:28.237Z,100214.16
2023-06-25T00:12:29.865Z,100207.47
2023-06-25T00:14:31.694Z,100203.69
2023-06-25T00:16:34.415Z,100201.53
2023-06-25T00:18:36.008Z,100197.25
2023-06-25T00:20:37.913Z,100199.91
2023-06-25T00:22:41.055Z,100199.63
2023-06-25T00:24:45.321Z,100196.13
2023-06-25T00:26:47.659Z,100201.47
2023-06-25T00:28:49.233Z,100196.09
2023-06-25T00:30:50.854Z,100193.38
2023-06-25T00:32:55.750Z,100190.66
2023-06-25T00:34:59.324Z,100191.47
2023-06-25T00:37:00.882Z,100186.13
2023-06-25T00:39:06.279Z,100181.53
2023-06-25T00:41:10.132Z,100185.56
2023-06-25T00:43:11.702Z,100180.69
2023-06-25T00:45:14.461Z,100176.41
2023-06-25T00:47:18.215Z,100175.59
2023-06-25T00:49:19.898Z,100180.38
2023-06-25T00:51:29.291Z,100182.22
2023-06-25T00:53:37.748Z,100182.44
2023-06-25T00:55:39.979Z,100171.22
2023-06-25T00:57:45.507Z,100182.44
2023-06-25T00:59:49.379Z,100184.00
2023-06-25T01:01:59.368Z,100178.41
2023-06-25T01:04:07.273Z,100173.25
2023-06-25T01:06:22.554Z,100172.72
2023-06-25T01:08:29.732Z,100170.28
2023-06-25T01:13:02.635Z,100166.50
2023-06-25T01:15:05.416Z,100168.41
2023-06-25T01:17:07.157Z,100166.78
2023-06-25T01:19:08.909Z,100159.81
2023-06-25T01:21:11.425Z,100163.00
2023-06-25T01:23:14.125Z,100160.84
2023-06-25T01:25:15.919Z,100160.03
2023-06-25T01:27:17.488Z,100156.53
2023-06-25T01:29:19.110Z,100159.50
2023-06-25T01:31:20.679Z,100161.09
2023-06-25T01:33:23.552Z,100156.25
2023-06-25T01:35:25.986Z,100158.91
2023-06-25T01:37:32.116Z,100153.28
2023-06-25T01:39:33.996Z,100146.06
2023-06-25T01:41:35.600Z,100148.44
2023-06-25T01:43:37.144Z,100147.34
2023-06-25T01:45:39.039Z,100145.19
2023-06-25T01:47:42.692Z,100142.50
2023-06-25T01:49:44.359Z,100147.28
2023-06-25T01:51:46.160Z,100138.72
2023-06-25T01:53:47.857Z,100134.72
2023-06-25T01:55:49.399Z,100144.81
2023-06-25T01:57:51.036Z,100138.13
2023-06-25T01:59:52.655Z,100137.31
2023-06-25T02:01:55.040Z,100134.34
2023-06-25T02:03:57.081Z,100131.13
2023-06-25T02:05:58.705Z,100128.94
2023-06-25T02:08:00.419Z,100131.06
2023-06-25T02:10:02.186Z,100128.66
2023-06-25T02:12:04.094Z,100123.28
2023-06-25T02:14:07.060Z,100127.22
2023-06-25T02:16:11.326Z,100116.81
2023-06-25T02:18:12.878Z,100116.75
2023-06-25T02:20:15.080Z,100111.41
2023-06-25T02:22:16.701Z,100109.56
2023-06-25T02:24:18.345Z,100109.03
2023-06-25T02:26:19.940Z,100111.09
2023-06-25T02:28:21.760Z,100104.94
2023-06-25T02:30:23.320Z,100104.63
2023-06-25T02:32:24.885Z,100109.97
2023-06-25T02:34:26.496Z,100103.84
2023-06-25T02:36:28.130Z,100099.56
2023-06-25T02:38:29.705Z,100102.75
2023-06-25T02:40:31.283Z,100102.75
2023-06-25T02:42:32.961Z,100101.63
2023-06-25T02:44:35.097Z,100102.69
2023-06-25T02:46:37.359Z,100103.50
2023-06-25T02:48:39.635Z,100097.56
2023-06-25T02:50:41.339Z,100096.22
2023-06-25T02:52:43.562Z,100095.69
2023-06-25T02:54:45.176Z,100097.28
2023-06-25T02:56:47.748Z,100086.88
2023-06-25T02:58:49.512Z,100093.00
2023-06-25T03:00:51.300Z,100095.09
2023-06-25T03:02:53.047Z,100090.28
2023-06-25T03:04:54.644Z,100093.53
2023-06-25T03:06:56.209Z,100090.28
2023-06-25T03:09:00.469Z,100091.84
2023-06-25T03:11:02.022Z,100090.78
2023-06-25T03:13:03.736Z,100087.31
2023-06-25T03:15:05.773Z,100089.16
2023-06-25T03:17:07.372Z,100092.63
2023-06-25T03:19:08.982Z,100088.94
2023-06-25T03:21:10.570Z,100088.34
2023-06-25T03:23:12.221Z,100091.03
2023-06-25T03:25:13.956Z,100089.97
2023-06-25T03:27:15.609Z,100093.44
2023-06-25T03:29:17.427Z,100091.03
2023-06-25T03:31:19.038Z,100092.09
2023-06-25T03:33:20.717Z,100088.84
2023-06-25T03:35:22.305Z,100089.66
2023-06-25T03:37:24.797Z,100088.34
2023-06-25T03:39:26.403Z,100081.16
2023-06-25T03:41:27.963Z,100085.44
2023-06-25T03:43:29.614Z,100077.19
2023-06-25T03:45:31.214Z,100083.31
2023-06-25T03:47:32.846Z,100078.78
2023-06-25T03:49:34.465Z,100082.84
2023-06-25T03:51:36.147Z,100079.66
2023-06-25T03:53:40.579Z,100081.25
2023-06-25T03:55:42.165Z,100071.97
2023-06-25T03:57:43.752Z,100074.38
2023-06-25T03:59:45.380Z,100076.28
2023-06-25T04:01:46.951Z,100080.31
2023-06-25T04:03:48.692Z,100084.34
2023-06-25T04:05:50.479Z,100086.25
2023-06-25T04:07:52.108Z,100082.53
2023-06-25T04:09:53.682Z,100078.34
2023-06-25T04:11:55.348Z,100079.44
2023-06-25T04:13:56.941Z,100082.41
2023-06-25T04:15:58.535Z,100087.25
2023-06-25T04:18:00.288Z,100083.00
2023-06-25T04:20:01.938Z,100088.88
2023-06-25T04:22:03.641Z,100083.06
2023-06-25T04:24:05.485Z,100084.41
2023-06-25T04:26:07.074Z,100068.94
2023-06-25T04:28:15.349Z,100081.28
2023-06-25T04:30:17.033Z,100077.53
2023-06-25T04:32:18.755Z,100082.13
2023-06-25T04:34:20.314Z,100077.59
2023-06-25T04:36:21.925Z,100075.50
2023-06-25T04:38:23.500Z,100070.16
2023-06-25T04:40:25.145Z,100073.94
2023-06-25T04:42:26.767Z,100076.09
2023-06-25T04:44:28.366Z,100076.13
2023-06-25T04:46:30.061Z,100075.06
2023-06-25T04:48:31.689Z,100070.00
2023-06-25T04:50:33.264Z,100074.06
2023-06-25T04:52:34.855Z,100074.88
2023-06-25T04:54:36.540Z,100074.91
2023-06-25T04:56:38.328Z,100072.78
2023-06-25T04:58:39.953Z,100077.91
2023-06-25T05:00:41.535Z,100072.84
2023-06-25T05:02:43.122Z,100071.53
2023-06-25T05:04:46.881Z,100070.75
2023-06-25T05:06:48.819Z,100070.78
2023-06-25T05:08:50.464Z,100075.38
2023-06-25T05:10:52.109Z,100070.84
2023-06-25T05:12:53.713Z,100078.38
2023-06-25T05:14:55.324Z,100077.09
2023-06-25T05:16:57.086Z,100077.13
2023-06-25T05:18:58.725Z,100077.69
2023-06-25T05:21:00.320Z,100080.66
2023-06-25T05:23:02.104Z,100081.47
2023-06-25T05:25:04.431Z,100082.56
2023-06-25T05:27:06.740Z,100077.78
2023-06-25T05:29:08.573Z,100085.28
2023-06-25T05:31:10.223Z,100084.78
2023-06-25T05:33:11.910Z,100080.50
2023-06-25T05:35:13.546Z,100079.75
2023-06-25T05:37:20.413Z,100080.28
2023-06-25T05:39:21.978Z,100088.34
2023-06-25T05:41:23.675Z,100087.00
2023-06-25T05:43:25.385Z,100083.00
2023-06-25T05:45:26.990Z,100089.16
2023-06-25T05:47:28.567Z,100088.34
2023-06-25T05:49:30.194Z,100090.22
2023-06-25T05:51:31.828Z,100079.75
2023-06-25T05:53:41.543Z,100078.16
2023-06-25T05:55:43.994Z,100075.44
2023-06-25T05:57:45.572Z,100066.91
2023-06-25T05:59:47.190Z,100073.84
2023-06-25T06:01:48.940Z,100077.31
2023-06-25T06:03:50.583Z,100080.25
2023-06-25T06:05:52.211Z,100074.03
2023-06-25T06:07:53.787Z,100071.28
2023-06-25T06:09:55.415Z,100075.03
2023-06-25T06:11:57.028Z,100078.22
2023-06-25T06:13:58.634Z,100075.22
2023-06-25T06:16:00.503Z,100079.22
2023-06-25T06:18:04.759Z,100083.50
2023-06-25T06:20:06.821Z,100082.06
2023-06-25T06:22:08.560Z,100079.34
2023-06-25T06:24:10.098Z,100079.59
2023-06-25T06:26:14.181Z,100085.44
2023-06-25T06:28:15.954Z,100080.56
2023-06-25T06:30:17.538Z,100078.06
2023-06-25T06:32:19.112Z,100076.94
2023-06-25T06:34:20.700Z,100077.09
2023-06-25T06:36:22.306Z,100073.00
2023-06-25T06:38:23.878Z,100075.63
2023-06-25T06:40:25.520Z,100073.69
2023-06-25T06:42:27.110Z,100071.47
2023-06-25T06:44:28.719Z,100079.16
2023-06-25T06:46:30.323Z,100069.66
2023-06-25T06:48:31.927Z,100071.44
2023-06-25T06:50:33.504Z,100075.34
2023-06-25T06:52:35.112Z,100069.31
2023-06-25T06:54:36.692Z,100071.88
2023-06-25T06:56:39.782Z,100069.94
2023-06-25T06:58:41.387Z,100070.34
2023-06-25T07:00:43.011Z,100071.09
2023-06-25T07:02:45.068Z,100072.03
2023-06-25T07:04:46.875Z,100067.31
2023-06-25T07:06:48.606Z,100067.47
2023-06-25T07:08:50.207Z,100068.72
2023-06-25T07:10:52.019Z,100064.25
2023-06-25T07:12:53.581Z,100069.19
2023-06-25T07:14:55.217Z,100073.16
2023-06-25T07:16:57.199Z,100068.41
2023-06-25T07:18:58.811Z,100069.31
2023-06-25T07:21:00.470Z,100068.16
2023-06-25T07:23:02.041Z,100062.25
2023-06-25T07:25:03.951Z,100066.56
2023-06-25T07:27:06.051Z,100068.50
2023-06-25T07:29:08.447Z,100064.50
2023-06-25T07:31:10.051Z,100061.59
2023-06-25T07:33:11.766Z,100061.16
2023-06-25T07:35:13.971Z,100066.94
2023-06-25T07:37:15.724Z,100065.97
2023-06-25T07:39:31.130Z,100060.56
2023-06-25T07:41:32.986Z,100063.56
2023-06-25T07:43:34.562Z,100070.13
2023-06-25T07:45:36.685Z,100072.25
2023-06-25T07:47:38.747Z,100074.94
2023-06-25T07:49:40.339Z,100070.13
2023-06-25T07:51:45.437Z,100068.72
2023-06-25T07:53:47.046Z,100073.13
2023-06-25T07:56:01.903Z,100070.59
2023-06-25T07:58:06.142Z,100070.19
2023-06-25T08:00:08.370Z,100067.13
2023-06-25T08:02:09.952Z,100075.00
2023-06-25T08:04:12.200Z,100064.34
2023-06-25T08:06:13.945Z,100068.22
2023-06-25T08:08:15.515Z,100063.22
2023-06-25T08:10:17.128Z,100063.44
2023-06-25T08:12:18.721Z,100061.09
2023-06-25T08:14:20.320Z,100063.66
2023-06-25T08:16:23.443Z,100055.06
2023-06-25T08:18:24.980Z,100064.53
2023-06-25T08:20:26.564Z,100056.75
2023-06-25T08:22:28.244Z,100059.13
2023-06-25T08:24:29.841Z,100061.41
2023-06-25T08:26:31.575Z,100056.69
2023-06-25T08:28:33.541Z,100057.84
2023-06-25T08:30:35.136Z,100052.41
2023-06-25T08:32:36.742Z,100050.53
2023-06-25T08:34:39.238Z,100050.09
2023-06-25T08:36:40.872Z,100049.00
2023-06-25T08:38:42.458Z,100049.66
2023-06-25T08:40:47.195Z,100046.00
2023-06-25T08:42:51.403Z,100044.44
2023-06-25T08:44:53.268Z,100038.38
2023-06-25T08:46:55.874Z,100043.50
2023-06-25T08:48:59.102Z,100047.00
2023-06-25T08:51:07.919Z,100032.81
2023-06-25T08:53:09.913Z,100036.66
2023-06-25T08:55:13.552Z,100032.03
2023-06-25T08:57:15.446Z,100039.06
2023-06-25T08:59:17.213Z,100040.00
2023-06-25T09:01:19.624Z,100039.53
2023-06-25T09:03:21.502Z,100042.09
2023-06-25T09:05:28.404Z,100036.50
2023-06-25T09:07:30.066Z,100037.78
2023-06-25T09:09:31.653Z,100030.88
2023-06-25T09:11:33.412Z,100027.88
2023-06-25T09:13:35.015Z,100022.44
2023-06-25T09:15:42.512Z,100032.78
2023-06-25T09:17:44.157Z,100028.34
2023-06-25T09:19:46.487Z,100035.84
2023-06-25T09:21:49.393Z,100036.66
2023-06-25T09:23:54.807Z,100035.38
2023-06-25T09:25:57.293Z,100030.06
2023-06-25T09:28:01.949Z,100027.19
2023-06-25T09:30:03.852Z,100026.41
2023-06-25T09:32:09.333Z,100035.94
2023-06-25T09:34:16.217Z,100027.63
2023-06-25T09:36:31.826Z,100036.41
2023-06-25T09:38:45.635Z,100027.91
2023-06-25T09:40:47.310Z,100016.09
2023-06-25T09:42:54.335Z,100013.16
2023-06-25T09:44:56.049Z,100010.25
2023-06-25T09:47:07.120Z,100008.47
2023-06-25T09:49:08.826Z,100006.97
2023-06-25T09:51:13.713Z,100003.56
2023-06-25T09:53:20.238Z,100008.81
2023-06-25T09:55:22.446Z,100007.53
2023-06-25T09:57:27.143Z,100005.03
2023-06-25T09:59:28.935Z,100008.47
2023-06-25T10:01:30.788Z,99999.09
2023-06-25T10:03:32.834Z,100002.09
2023-06-25T10:05:35.267Z,99998.06
2023-06-25T10:07:37.422Z,100005.03
2023-06-25T10:09:39.068Z,99999.16
2023-06-25T10:12:11.289Z,99997.34
2023-06-25T10:14:15.107Z,99997.88
2023-06-25T10:16:26.499Z,99995.53
2023-06-25T10:18:53.624Z,99995.22
2023-06-25T10:20:59.588Z,99991.25
2023-06-25T10:23:12.356Z,99990.22
2023-06-25T10:25:28.171Z,99992.25
2023-06-25T10:27:30.897Z,99985.09
2023-06-25T10:29:42.662Z,99981.97
2023-06-25T10:31:46.263Z,99983.00
2023-06-25T10:33:48.285Z,99973.88
2023-06-25T10:35:56.873Z,99975.78
2023-06-25T10:37:58.472Z,99973.75
2023-06-25T10:40:08.352Z,99972.00
2023-06-25T10:42:10.106Z,99973.06
2023-06-25T10:44:11.704Z,99968.72
2023-06-25T10:46:13.292Z,99965.56
2023-06-25T10:48:14.942Z,99967.50
2023-06-25T10:50:18.076Z,99969.97
2023-06-25T10:52:19.834Z,99955.13
2023-06-25T10:54:22.494Z,99970.09
2023-06-25T10:56:24.731Z,99958.28
2023-06-25T10:58:26.404Z,99956.94
2023-06-25T11:00:31.016Z,99954.59
2023-06-25T11:02:32.759Z,99952.22
2023-06-25T11:04:34.471Z,99959.59
2023-06-25T11:06:39.053Z,99948.34
2023-06-25T11:08:43.889Z,99946.41
2023-06-25T11:10:45.798Z,99948.03
2023-06-25T11:12:47.382Z,99944.72
2023-06-25T11:14:51.131Z,99948.09
2023-06-25T11:16:52.702Z,99945.00
2023-06-25T11:18:54.411Z,99945.91
2023-06-25T11:20:58.996Z,99942.28
2023-06-25T11:23:02.710Z,99946.94
2023-06-25T11:25:07.573Z,99945.03
2023-06-25T11:27:09.251Z,99936.31
2023-06-25T11:29:12.084Z,99932.09
2023-06-25T11:31:17.800Z,99925.44
2023-06-25T11:33:19.626Z,99925.50
2023-06-25T11:35:25.373Z,99930.41
2023-06-25T11:37:30.164Z,99934.31
2023-06-25T11:39:31.709Z,99925.19
2023-06-25T11:41:35.609Z,99920.97
2023-06-25T11:43:37.300Z,99927.56
2023-06-25T11:45:41.493Z,99929.34
2023-06-25T11:47:47.679Z,99923.06
2023-06-25T11:49:55.546Z,99921.84
2023-06-25T11:51:58.882Z,99922.81
2023-06-25T11:54:00.504Z,99927.06
2023-06-25T11:56:02.372Z,99920.13
2023-06-25T11:58:04.193Z,99913.88
2023-06-25T12:00:06.750Z,99916.13
2023-06-25T12:02:08.421Z,99915.00
2023-06-25T12:04:10.385Z,99913.66
2023-06-25T12:06:12.048Z,99912.59
2023-06-25T12:08:13.645Z,99909.41
2023-06-25T12:10:15.312Z,99905.84
2023-06-25T12:12:16.955Z,99904.06
2023-06-25T12:14:18.563Z,99903.44
2023-06-25T12:16:20.623Z,99911.16
2023-06-25T12:18:23.432Z,99899.41
2023-06-25T12:20:25.011Z,99901.78
2023-06-25T12:22:26.569Z,99907.78
2023-06-25T12:24:28.280Z,99896.16
2023-06-25T12:26:29.845Z,99890.06
2023-06-25T12:28:31.493Z,99879.41
2023-06-25T12:30:33.464Z,99872.63
2023-06-25T12:32:36.398Z,99872.78
2023-06-25T12:34:38.098Z,99872.28
2023-06-25T12:36:39.674Z,99874.50
2023-06-25T12:38:41.238Z,99871.06
2023-06-25T12:40:43.059Z,99868.59
2023-06-25T12:42:44.785Z,99869.28
2023-06-25T12:44:46.347Z,99874.56
2023-06-25T12:46:47.947Z,99864.78
2023-06-25T12:48:49.570Z,99865.03
2023-06-25T12:50:51.263Z,99859.22
2023-06-25T12:52:53.182Z,99865.94
2023-06-25T12:54:55.569Z,99852.16
2023-06-25T12:56:57.126Z,99858.34
2023-06-25T12:58:58.729Z,99851.94
2023-06-25T13:01:07.481Z,99842.47
2023-06-25T13:03:09.853Z,99845.25
2023-06-25T13:05:11.559Z,99845.03
2023-06-25T13:07:13.143Z,99852.72
2023-06-25T13:09:14.799Z,99852.00
2023-06-25T13:11:16.476Z,99840.47
2023-06-25T13:13:18.066Z,99847.00
2023-06-25T13:15:19.856Z,99842.94
2023-06-25T13:17:21.448Z,99841.81
2023-06-25T13:19:23.091Z,99840.97
2023-06-25T13:21:24.695Z,99832.84
2023-06-25T13:23:26.263Z,99842.38
2023-06-25T13:25:27.934Z,99833.31
2023-06-25T13:27:29.579Z,99837.69
2023-06-25T13:29:31.210Z,99826.25
2023-06-25T13:31:32.942Z,99832.69
2023-06-25T13:33:34.672Z,99825.16
2023-06-25T13:35:36.401Z,99825.59
2023-06-25T13:37:38.300Z,99826.81
2023-06-25T13:39:39.893Z,99815.25
2023-06-25T13:41:41.500Z,99816.00
2023-06-25T13:43:45.065Z,99821.59
2023-06-25T13:45:46.691Z,99814.78
2023-06-25T13:47:48.316Z,99814.81
2023-06-25T13:49:49.917Z,99819.78
2023-06-25T13:51:51.559Z,99807.19
2023-06-25T13:53:53.235Z,99800.78
2023-06-25T13:55:54.937Z,99808.00
2023-06-25T13:57:56.655Z,99807.09
2023-06-25T13:59:58.233Z,99802.22
2023-06-25T14:01:59.838Z,99803.41
2023-06-25T14:04:01.684Z,99802.31
2023-06-25T14:06:03.460Z,99796.91
2023-06-25T14:08:06.744Z,99797.44
2023-06-25T14:10:09.223Z,99797.06
2023-06-25T14:12:10.916Z,99795.81
2023-06-25T14:14:12.642Z,99791.41
2023-06-25T14:16:16.349Z,99788.38
2023-06-25T14:18:18.088Z,99790.56
2023-06-25T14:20:20.001Z,99787.19
2023-06-25T14:22:22.723Z,99778.16
2023-06-25T14:24:24.327Z,99785.16
2023-06-25T14:26:25.913Z,99781.31
2023-06-25T14:28:30.791Z,99773.44
2023-06-25T14:30:35.015Z,99782.56
2023-06-25T14:32:36.677Z,99775.22
2023-06-25T14:34:38.339Z,99774.06
2023-06-25T14:36:39.990Z,99776.63
2023-06-25T14:38:42.677Z,99773.47
2023-06-25T14:40:44.282Z,99774.03
2023-06-25T14:42:45.855Z,99776.22
2023-06-25T14:44:47.457Z,99764.53
2023-06-25T14:46:50.680Z,99772.28
2023-06-25T14:48:52.366Z,99761.69
2023-06-25T14:50:54.028Z,99773.06
2023-06-25T14:52:55.721Z,99785.25
2023-06-25T14:54:57.297Z,99776.69
2023-06-25T14:56:58.998Z,99773.38
2023-06-25T14:59:00.585Z,99786.03
2023-06-25T15:01:02.326Z,99777.94
2023-06-25T15:03:05.417Z,99771.81
2023-06-25T15:05:07.716Z,99778.00
2023-06-25T15:07:09.375Z,99770.91
2023-06-25T15:09:12.389Z,99766.94
2023-06-25T15:11:14.107Z,99757.41
2023-06-25T15:13:16.949Z,99762.50
2023-06-25T15:15:18.512Z,99761.84
2023-06-25T15:17:20.110Z,99756.59
2023-06-25T15:19:21.658Z,99754.34
2023-06-25T15:21:23.309Z,99757.72
2023-06-25T15:23:25.050Z,99745.31
2023-06-25T15:25:26.637Z,99749.41
2023-06-25T15:27:28.221Z,99747.22
2023-06-25T15:29:32.865Z,99742.13
2023-06-25T15:31:34.593Z,99735.38
2023-06-25T15:33:36.216Z,99730.91
2023-06-25T15:35:37.830Z,99726.28
2023-06-25T15:37:39.425Z,99732.84
2023-06-25T15:39:41.064Z,99724.38
2023-06-25T15:41:43.297Z,99721.34
2023-06-25T15:43:44.862Z,99732.53
2023-06-25T15:45:48.508Z,99711.88
2023-06-25T15:47:50.176Z,99719.66
2023-06-25T15:49:51.777Z,99706.06
2023-06-25T15:51:53.378Z,99693.78
2023-06-25T15:53:55.145Z,99674.56
2023-06-25T15:55:57.027Z,99695.72
2023-06-25T15:58:00.374Z,99696.00
2023-06-25T16:00:02.060Z,99705.16
2023-06-25T16:02:03.792Z,99695.09
2023-06-25T16:04:05.376Z,99684.69
2023-06-25T16:06:06.950Z,99686.50
2023-06-25T16:08:10.853Z,99689.53
2023-06-25T16:10:12.768Z,99678.47
2023-06-25T16:12:15.042Z,99679.66
2023-06-25T16:14:16.618Z,99679.16
2023-06-25T16:16:18.150Z,99670.91
2023-06-25T16:18:19.778Z,99676.47
2023-06-25T16:20:21.514Z,99672.25
2023-06-25T16:22:23.200Z,99671.91
2023-06-25T16:24:24.761Z,99670.28
2023-06-25T16:26:26.354Z,99664.97
2023-06-25T16:28:29.360Z,99661.41
2023-06-25T16:30:30.941Z,99666.50
2023-06-25T16:32:33.275Z,99656.94
2023-06-25T16:34:36.005Z,99654.50
2023-06-25T16:36:37.646Z,99656.22
2023-06-25T16:38:39.184Z,99644.38
2023-06-25T16:40:40.774Z,99646.31
2023-06-25T16:42:42.405Z,99645.91
2023-06-25T16:44:44.228Z,99639.28
2023-06-25T16:46:45.901Z,99637.59
2023-06-25T16:48:47.540Z,99633.09
2023-06-25T16:50:49.189Z,99634.59
2023-06-25T16:52:50.749Z,99637.69
2023-06-25T16:54:52.370Z,99634.84
2023-06-25T16:56:53.985Z,99640.75
2023-06-25T16:58:55.594Z,99626.13
2023-06-25T17:00:57.164Z,99636.56
2023-06-25T17:02:58.845Z,99635.13
2023-06-25T17:05:00.520Z,99636.66
2023-06-25T17:07:03.596Z,99632.69
2023-06-25T17:09:05.989Z,99621.91
2023-06-25T17:11:07.875Z,99624.63
2023-06-25T17:13:09.613Z,99618.19
2023-06-25T17:15:11.249Z,99615.41
2023-06-25T17:17:12.844Z,99617.72
2023-06-25T17:19:14.539Z,99613.44
2023-06-25T17:21:16.244Z,99611.72
2023-06-25T17:23:19.403Z,99605.28
2023-06-25T17:25:23.634Z,99603.88
2023-06-25T17:27:25.179Z,99600.44
2023-06-25T17:29:26.762Z,99598.91
2023-06-25T17:31:28.331Z,99600.41
2023-06-25T17:33:29.896Z,99598.75
2023-06-25T17:35:31.576Z,99590.94
2023-06-25T17:37:33.412Z,99588.03
2023-06-25T17:39:35.339Z,99595.97
2023-06-25T17:41:36.902Z,99594.38
2023-06-25T17:43:38.484Z,99595.66
2023-06-25T17:45:40.296Z,99592.53
2023-06-25T17:47:44.882Z,99591.22
2023-06-25T17:49:46.482Z,99594.78
2023-06-25T17:51:48.589Z,99594.72
2023-06-25T17:53:50.249Z,99595.84
2023-06-25T17:55:51.864Z,99594.63
2023-06-25T17:57:53.485Z,99594.53
2023-06-25T17:59:55.080Z,99595.94
2023-06-25T18:01:56.705Z,99592.28
2023-06-25T18:03:58.314Z,99593.72
2023-06-25T18:06:00.600Z,99592.25
2023-06-25T18:08:02.310Z,99596.06
2023-06-25T18:10:04.174Z,99595.16
2023-06-25T18:12:05.933Z,99598.66
2023-06-25T18:14:07.459Z,99598.03
2023-06-25T18:16:09.121Z,99592.09
2023-06-25T18:18:12.286Z,99601.75
2023-06-25T18:20:13.990Z,99604.81
2023-06-25T18:22:15.577Z,99600.66
2023-06-25T18:24:17.326Z,99597.22
2023-06-25T18:26:18.903Z,99599.28
2023-06-25T18:28:20.442Z,99594.06
2023-06-25T18:30:22.089Z,99599.69
2023-06-25T18:32:23.690Z,99601.22
2023-06-25T18:34:25.285Z,99599.28
2023-06-25T18:36:27.143Z,99599.00
2023-06-25T18:38:28.985Z,99598.00
2023-06-25T18:40:30.608Z,99591.59
2023-06-25T18:42:32.338Z,99596.22
2023-06-25T18:44:33.915Z,99592.28
2023-06-25T18:46:37.213Z,99591.56
2023-06-25T18:48:38.877Z,99585.31
2023-06-25T18:50:40.912Z,99589.81
2023-06-25T18:52:42.553Z,99589.88
2023-06-25T18:54:45.356Z,99586.22
2023-06-25T18:56:46.988Z,99590.84
2023-06-25T18:58:48.568Z,99591.25
2023-06-25T19:00:50.126Z,99591.63
2023-06-25T19:02:51.839Z,99586.22
2023-06-25T19:04:53.432Z,99583.41
2023-06-25T19:06:55.025Z,99591.03
2023-06-25T19:08:57.068Z,99583.22
2023-06-25T19:10:58.777Z,99577.94
2023-06-25T19:13:00.856Z,99577.81
2023-06-25T19:15:02.481Z,99573.53
2023-06-25T19:17:06.711Z,99582.25
2023-06-25T19:19:09.407Z,99577.84
2023-06-25T19:21:11.853Z,99577.69
2023-06-25T19:23:27.814Z,99577.03
2023-06-25T19:25:30.954Z,99568.97
2023-06-25T19:27:32.587Z,99568.47
2023-06-25T19:29:34.272Z,99571.50
2023-06-25T19:31:35.825Z,99568.56
2023-06-25T19:33:37.366Z,99571.34
2023-06-25T19:35:39.001Z,99566.91
2023-06-25T19:37:40.684Z,99572.69
2023-06-25T19:39:42.397Z,99570.88
2023-06-25T19:41:44.003Z,99568.03
2023-06-25T19:43:45.667Z,99574.22
2023-06-25T19:45:50.436Z,99577.66
2023-06-25T19:47:52.215Z,99575.00
2023-06-25T19:49:54.180Z,99574.63
2023-06-25T19:51:55.754Z,99570.41
2023-06-25T19:54:00.648Z,99573.81
2023-06-25T19:56:06.195Z,99571.19
2023-06-25T19:58:18.865Z,99576.63
2023-06-25T20:00:20.581Z,99575.25
2023-06-25T20:02:22.568Z,99587.84
2023-06-25T20:04:24.311Z,99578.81
2023-06-25T20:06:25.929Z,99580.91
2023-06-25T20:08:28.108Z,99580.94
2023-06-25T20:10:37.845Z,99584.63
2023-06-25T20:12:44.564Z,99585.78
2023-06-25T20:14:46.202Z,99571.75
2023-06-25T20:16:48.173Z,99572.88
2023-06-25T20:18:49.736Z,99567.94
2023-06-25T20:20:51.314Z,99572.75
2023-06-25T20:22:52.992Z,99574.81
2023-06-25T20:24:54.623Z,99581.97
2023-06-25T20:26:56.173Z,99576.41
2023-06-25T20:28:57.826Z,99577.72
2023-06-25T20:30:59.428Z,99572.00
2023-06-25T20:33:03.099Z,99572.91
2023-06-25T20:35:04.908Z,99573.09
2023-06-25T20:37:06.567Z,99573.25
2023-06-25T20:39:08.155Z,99567.22
2023-06-25T20:41:27.011Z,99573.56
2023-06-25T20:43:31.836Z,99582.16
2023-06-25T20:45:33.481Z,99578.97
2023-06-25T20:47:40.112Z,99580.22
2023-06-25T20:49:42.730Z,99576.09
2023-06-25T20:51:44.308Z,99582.16
